sensor_id;sensor_type;location;lat;lon;timestamp;pressure;altitude;pressure_sealevel;temperature;humidity
47524;BME280;33253;42.144;25.884;2024-03-23T00:55:37;100719.50;;;4.38;92.86
47524;BME280;33253;42.144;25.884;2024-03-23T00:58:02;100718.19;;;4.18;93.65
47524;BME280;33253;42.144;25.884;2024-03-23T01:00:27;100721.69;;;4.07;94.55
47524;BME280;33253;42.144;25.884;2024-03-23T01:02:53;100719.19;;;3.95;95.64
47524;BME280;33253;42.144;25.884;2024-03-23T01:05:18;100710.25;;;3.88;96.35
47524;BME280;33253;42.144;25.884;2024-03-23T01:07:43;100715.44;;;3.89;96.77
47524;BME280;33253;42.144;25.884;2024-03-23T01:10:09;100713.56;;;3.87;96.23
47524;BME280;33253;42.144;25.884;2024-03-23T01:12:34;100714.97;;;3.95;96.42
47524;BME280;33253;42.144;25.884;2024-03-23T01:14:59;100709.88;;;3.95;95.70
47524;BME280;33253;42.144;25.884;2024-03-23T01:17:24;100710.75;;;3.96;95.76
47524;BME280;33253;42.144;25.884;2024-03-23T01:19:50;100713.34;;;4.09;95.66
47524;BME280;33253;42.144;25.884;2024-03-23T01:22:15;100709.47;;;4.28;94.77
47524;BME280;33253;42.144;25.884;2024-03-23T01:24:40;100709.59;;;4.43;93.33
47524;BME280;33253;42.144;25.884;2024-03-23T01:27:06;100705.28;;;4.55;93.25
47524;BME280;33253;42.144;25.884;2024-03-23T01:29:31;100709.19;;;4.63;91.55
47524;BME280;33253;42.144;25.884;2024-03-23T01:31:56;100707.22;;;4.59;91.56
47524;BME280;33253;42.144;25.884;2024-03-23T01:34:22;100710.47;;;4.43;93.87
47524;BME280;33253;42.144;25.884;2024-03-23T01:36:47;100703.19;;;4.49;95.25
47524;BME280;33253;42.144;25.884;2024-03-23T01:39:13;100702.03;;;4.58;95.23
47524;BME280;33253;42.144;25.884;2024-03-23T01:41:40;100699.66;;;4.61;96.04
47524;BME280;33253;42.144;25.884;2024-03-23T01:44:07;100696.81;;;4.69;95.34
47524;BME280;33253;42.144;25.884;2024-03-23T01:46:33;100700.66;;;4.63;93.87
47524;BME280;33253;42.144;25.884;2024-03-23T01:49:00;100695.31;;;4.60;94.06
47524;BME280;33253;42.144;25.884;2024-03-23T01:51:26;100691.69;;;4.69;94.30
47524;BME280;33253;42.144;25.884;2024-03-23T01:53:52;100688.94;;;4.80;92.52
47524;BME280;33253;42.144;25.884;2024-03-23T01:56:18;100690.81;;;4.69;91.27
47524;BME280;33253;42.144;25.884;2024-03-23T01:58:43;100696.09;;;4.72;90.06
47524;BME280;33253;42.144;25.884;2024-03-23T02:01:09;100691.91;;;4.59;88.28
47524;BME280;33253;42.144;25.884;2024-03-23T02:03:34;100695.59;;;4.24;86.94
47524;BME280;33253;42.144;25.884;2024-03-23T02:05:59;100695.28;;;4.19;86.95
47524;BME280;33253;42.144;25.884;2024-03-23T02:08:25;100697.16;;;4.22;87.07
47524;BME280;33253;42.144;25.884;2024-03-23T02:10:50;100698.25;;;4.26;87.10
47524;BME280;33253;42.144;25.884;2024-03-23T02:13:17;100699.03;;;4.25;86.23
47524;BME280;33253;42.144;25.884;2024-03-23T02:15:42;100694.09;;;4.14;85.95
47524;BME280;33253;42.144;25.884;2024-03-23T02:18:08;100701.06;;;4.17;85.96
47524;BME280;33253;42.144;25.884;2024-03-23T02:20:34;100697.75;;;4.18;86.02
47524;BME280;33253;42.144;25.884;2024-03-23T02:22:59;100702.34;;;4.10;85.89
47524;BME280;33253;42.144;25.884;2024-03-23T02:25:25;100698.28;;;4.00;86.53
47524;BME280;33253;42.144;25.884;2024-03-23T02:27:50;100703.66;;;3.92;87.40
47524;BME280;33253;42.144;25.884;2024-03-23T02:30:15;100703.81;;;3.81;87.81
47524;BME280;33253;42.144;25.884;2024-03-23T02:32:41;100705.28;;;3.78;88.47
47524;BME280;33253;42.144;25.884;2024-03-23T02:35:06;100705.97;;;3.75;88.57
47524;BME280;33253;42.144;25.884;2024-03-23T02:37:32;100706.25;;;3.80;88.85
47524;BME280;33253;42.144;25.884;2024-03-23T02:39:57;100701.94;;;3.79;89.02
47524;BME280;33253;42.144;25.884;2024-03-23T02:42:23;100702.78;;;3.66;89.78
47524;BME280;33253;42.144;25.884;2024-03-23T02:44:48;100698.34;;;3.63;90.49
47524;BME280;33253;42.144;25.884;2024-03-23T02:47:13;100704.75;;;3.70;90.47
47524;BME280;33253;42.144;25.884;2024-03-23T02:49:40;100702.88;;;3.67;89.82
47524;BME280;33253;42.144;25.884;2024-03-23T02:52:05;100710.03;;;3.60;90.64
47524;BME280;33253;42.144;25.884;2024-03-23T02:54:31;100711.72;;;3.47;91.07
47524;BME280;33253;42.144;25.884;2024-03-23T02:56:56;100712.06;;;3.52;91.53
47524;BME280;33253;42.144;25.884;2024-03-23T02:59:21;100709.16;;;3.59;91.81
47524;BME280;33253;42.144;25.884;2024-03-23T03:01:47;100714.44;;;3.62;91.74
47524;BME280;33253;42.144;25.884;2024-03-23T03:04:12;100713.34;;;3.59;91.75
47524;BME280;33253;42.144;25.884;2024-03-23T03:06:37;100704.03;;;3.59;91.36
47524;BME280;33253;42.144;25.884;2024-03-23T03:09:03;100707.72;;;3.51;91.18
47524;BME280;33253;42.144;25.884;2024-03-23T03:11:28;100715.91;;;3.10;93.02
47524;BME280;33253;42.144;25.884;2024-03-23T03:13:53;100718.59;;;2.87;95.72
47524;BME280;33253;42.144;25.884;2024-03-23T03:16:19;100716.63;;;2.83;96.58
47524;BME280;33253;42.144;25.884;2024-03-23T03:18:44;100717.94;;;2.66;97.42
47524;BME280;33253;42.144;25.884;2024-03-23T03:21:11;100712.16;;;2.45;99.32
47524;BME280;33253;42.144;25.884;2024-03-23T03:23:37;100715.22;;;2.29;100.00
47524;BME280;33253;42.144;25.884;2024-03-23T03:26:03;100713.19;;;2.01;100.00
47524;BME280;33253;42.144;25.884;2024-03-23T03:28:28;100709.50;;;1.86;100.00
47524;BME280;33253;42.144;25.884;2024-03-23T03:30:55;100715.66;;;1.77;100.00
47524;BME280;33253;42.144;25.884;2024-03-23T03:33:21;100710.22;;;1.73;100.00
47524;BME280;33253;42.144;25.884;2024-03-23T03:35:46;100713.03;;;1.66;100.00
47524;BME280;33253;42.144;25.884;2024-03-23T03:38:12;100721.41;;;1.53;100.00
47524;BME280;33253;42.144;25.884;2024-03-23T03:40:37;100722.06;;;1.50;100.00
47524;BME280;33253;42.144;25.884;2024-03-23T03:43:02;100721.88;;;1.37;100.00
47524;BME280;33253;42.144;25.884;2024-03-23T03:45:28;100725.84;;;1.01;100.00
47524;BME280;33253;42.144;25.884;2024-03-23T03:47:53;100720.13;;;1.03;100.00
47524;BME280;33253;42.144;25.884;2024-03-23T03:50:19;100726.59;;;1.00;100.00
47524;BME280;33253;42.144;25.884;2024-03-23T03:52:44;100729.28;;;1.01;100.00
47524;BME280;33253;42.144;25.884;2024-03-23T03:55:12;100727.75;;;1.03;100.00
47524;BME280;33253;42.144;25.884;2024-03-23T03:57:37;100732.28;;;1.18;100.00
47524;BME280;33253;42.144;25.884;2024-03-23T04:00:03;100732.75;;;1.24;100.00
47524;BME280;33253;42.144;25.884;2024-03-23T04:02:30;100740.09;;;1.31;100.00
47524;BME280;33253;42.144;25.884;2024-03-23T04:04:55;100730.16;;;1.34;100.00
47524;BME280;33253;42.144;25.884;2024-03-23T04:07:20;100734.13;;;1.53;100.00
47524;BME280;33253;42.144;25.884;2024-03-23T04:09:47;100734.06;;;1.63;100.00
47524;BME280;33253;42.144;25.884;2024-03-23T04:12:13;100737.63;;;1.65;100.00
47524;BME280;33253;42.144;25.884;2024-03-23T04:14:38;100740.06;;;1.64;100.00
47524;BME280;33253;42.144;25.884;2024-03-23T04:17:03;100733.13;;;1.73;100.00
47524;BME280;33253;42.144;25.884;2024-03-23T04:19:29;100735.66;;;1.95;100.00
47524;BME280;33253;42.144;25.884;2024-03-23T04:21:54;100736.47;;;2.18;100.00
47524;BME280;33253;42.144;25.884;2024-03-23T04:24:20;100740.41;;;2.36;100.00
47524;BME280;33253;42.144;25.884;2024-03-23T04:26:47;100740.09;;;2.55;99.22
47524;BME280;33253;42.144;25.884;2024-03-23T04:29:12;100740.09;;;2.67;96.60
47524;BME280;33253;42.144;25.884;2024-03-23T04:31:38;100743.09;;;2.73;95.38
47524;BME280;33253;42.144;25.884;2024-03-23T04:34:03;100738.78;;;2.72;95.09
47524;BME280;33253;42.144;25.884;2024-03-23T04:36:29;100748.53;;;2.66;95.40
47524;BME280;33253;42.144;25.884;2024-03-23T04:38:56;100748.59;;;2.44;97.03
47524;BME280;33253;42.144;25.884;2024-03-23T04:41:21;100738.75;;;2.37;98.52
47524;BME280;33253;42.144;25.884;2024-03-23T04:44:06;100749.41;;;2.43;98.62
47524;BME280;33253;42.144;25.884;2024-03-23T04:46:32;100749.94;;;2.39;97.73
47524;BME280;33253;42.144;25.884;2024-03-23T04:48:58;100753.38;;;2.39;97.49
47524;BME280;33253;42.144;25.884;2024-03-23T04:51:24;100746.50;;;2.50;97.40
47524;BME280;33253;42.144;25.884;2024-03-23T04:53:49;100747.16;;;2.48;96.90
47524;BME280;33253;42.144;25.884;2024-03-23T04:56:15;100746.63;;;2.40;96.46
47524;BME280;33253;42.144;25.884;2024-03-23T04:58:43;100749.56;;;2.22;97.16
47524;BME280;33253;42.144;25.884;2024-03-23T05:01:09;100750.19;;;2.08;98.80
47524;BME280;33253;42.144;25.884;2024-03-23T05:03:34;100752.88;;;2.21;99.37
47524;BME280;33253;42.144;25.884;2024-03-23T05:05:59;100754.25;;;2.28;99.48
47524;BME280;33253;42.144;25.884;2024-03-23T05:08:25;100755.94;;;2.39;99.51
47524;BME280;33253;42.144;25.884;2024-03-23T05:10:50;100763.56;;;2.51;99.61
47524;BME280;33253;42.144;25.884;2024-03-23T05:13:16;100759.59;;;2.55;99.44
47524;BME280;33253;42.144;25.884;2024-03-23T05:15:41;100759.59;;;2.55;99.73
47524;BME280;33253;42.144;25.884;2024-03-23T05:18:06;100759.94;;;2.59;100.00
47524;BME280;33253;42.144;25.884;2024-03-23T05:20:32;100763.72;;;2.65;100.00
47524;BME280;33253;42.144;25.884;2024-03-23T05:22:57;100763.72;;;2.77;100.00
47524;BME280;33253;42.144;25.884;2024-03-23T05:25:22;100765.84;;;2.94;100.00
47524;BME280;33253;42.144;25.884;2024-03-23T05:27:48;100765.63;;;3.03;99.63
47524;BME280;33253;42.144;25.884;2024-03-23T05:30:13;100760.41;;;3.13;98.91
47524;BME280;33253;42.144;25.884;2024-03-23T05:32:39;100763.28;;;3.18;98.63
47524;BME280;33253;42.144;25.884;2024-03-23T05:35:06;100760.28;;;3.12;98.66
47524;BME280;33253;42.144;25.884;2024-03-23T05:37:32;100764.25;;;3.20;98.63
47524;BME280;33253;42.144;25.884;2024-03-23T05:39:59;100764.03;;;3.29;99.31
47524;BME280;33253;42.144;25.884;2024-03-23T05:42:26;100762.69;;;3.34;100.00
47524;BME280;33253;42.144;25.884;2024-03-23T05:44:52;100765.13;;;3.32;100.00
47524;BME280;33253;42.144;25.884;2024-03-23T05:47:17;100765.56;;;3.38;100.00
47524;BME280;33253;42.144;25.884;2024-03-23T05:49:42;100762.09;;;3.50;100.00
47524;BME280;33253;42.144;25.884;2024-03-23T05:52:08;100758.44;;;3.58;100.00
47524;BME280;33253;42.144;25.884;2024-03-23T05:54:34;100764.84;;;3.65;100.00
47524;BME280;33253;42.144;25.884;2024-03-23T05:56:59;100763.81;;;3.75;100.00
47524;BME280;33253;42.144;25.884;2024-03-23T05:59:25;100760.56;;;3.77;100.00
47524;BME280;33253;42.144;25.884;2024-03-23T06:01:50;100770.53;;;3.86;100.00
47524;BME280;33253;42.144;25.884;2024-03-23T06:04:16;100762.94;;;3.99;100.00
47524;BME280;33253;42.144;25.884;2024-03-23T06:06:41;100760.69;;;4.04;100.00
47524;BME280;33253;42.144;25.884;2024-03-23T06:09:07;100755.47;;;4.02;100.00
47524;BME280;33253;42.144;25.884;2024-03-23T06:11:34;100758.78;;;3.88;100.00
47524;BME280;33253;42.144;25.884;2024-03-23T06:13:59;100755.72;;;3.94;100.00
47524;BME280;33253;42.144;25.884;2024-03-23T06:16:26;100752.97;;;4.16;100.00
47524;BME280;33253;42.144;25.884;2024-03-23T06:18:53;100755.47;;;4.28;100.00
47524;BME280;33253;42.144;25.884;2024-03-23T06:21:20;100762.28;;;4.41;100.00
47524;BME280;33253;42.144;25.884;2024-03-23T06:23:46;100761.69;;;4.45;100.00
47524;BME280;33253;42.144;25.884;2024-03-23T06:26:19;100765.25;;;4.60;100.00
47524;BME280;33253;42.144;25.884;2024-03-23T06:28:45;100755.25;;;4.77;100.00
47524;BME280;33253;42.144;25.884;2024-03-23T06:31:11;100752.78;;;4.78;100.00
47524;BME280;33253;42.144;25.884;2024-03-23T06:33:36;100754.47;;;4.91;100.00
47524;BME280;33253;42.144;25.884;2024-03-23T06:36:02;100756.44;;;4.95;100.00
47524;BME280;33253;42.144;25.884;2024-03-23T06:38:28;100761.16;;;4.89;100.00
47524;BME280;33253;42.144;25.884;2024-03-23T06:40:53;100756.25;;;4.79;100.00
47524;BME280;33253;42.144;25.884;2024-03-23T06:43:19;100755.44;;;4.66;100.00
47524;BME280;33253;42.144;25.884;2024-03-23T06:45:52;100750.81;;;4.74;100.00
47524;BME280;33253;42.144;25.884;2024-03-23T06:48:18;100754.66;;;4.94;100.00
47524;BME280;33253;42.144;25.884;2024-03-23T06:50:45;100748.06;;;5.11;100.00
47524;BME280;33253;42.144;25.884;2024-03-23T06:53:14;100755.03;;;5.27;100.00
47524;BME280;33253;42.144;25.884;2024-03-23T06:55:40;100747.13;;;5.51;100.00
47524;BME280;33253;42.144;25.884;2024-03-23T06:58:06;100751.00;;;5.59;100.00
47524;BME280;33253;42.144;25.884;2024-03-23T07:00:31;100744.00;;;5.70;100.00
47524;BME280;33253;42.144;25.884;2024-03-23T07:02:59;100744.50;;;5.93;100.00
47524;BME280;33253;42.144;25.884;2024-03-23T07:05:25;100744.22;;;6.17;100.00
47524;BME280;33253;42.144;25.884;2024-03-23T07:07:50;100738.16;;;6.29;100.00
47524;BME280;33253;42.144;25.884;2024-03-23T07:10:16;100744.06;;;6.28;100.00
47524;BME280;33253;42.144;25.884;2024-03-23T07:12:41;100740.25;;;6.37;100.00
47524;BME280;33253;42.144;25.884;2024-03-23T07:15:07;100737.88;;;6.25;100.00
47524;BME280;33253;42.144;25.884;2024-03-23T07:17:52;100736.31;;;6.57;100.00
47524;BME280;33253;42.144;25.884;2024-03-23T07:20:18;100736.38;;;6.73;100.00
47524;BME280;33253;42.144;25.884;2024-03-23T07:22:45;100732.34;;;6.93;100.00
47524;BME280;33253;42.144;25.884;2024-03-23T07:25:11;100725.25;;;7.04;99.77
47524;BME280;33253;42.144;25.884;2024-03-23T07:27:37;100733.44;;;7.13;97.94
47524;BME280;33253;42.144;25.884;2024-03-23T07:30:02;100730.84;;;6.97;96.53
47524;BME280;33253;42.144;25.884;2024-03-23T07:32:28;100727.97;;;7.07;97.47
47524;BME280;33253;42.144;25.884;2024-03-23T07:34:57;100723.31;;;7.32;94.48
47524;BME280;33253;42.144;25.884;2024-03-23T07:37:22;100712.41;;;7.52;94.95
47524;BME280;33253;42.144;25.884;2024-03-23T07:39:47;100706.97;;;7.79;94.11
47524;BME280;33253;42.144;25.884;2024-03-23T07:42:26;100711.34;;;7.98;91.12
47524;BME280;33253;42.144;25.884;2024-03-23T07:44:51;100704.69;;;8.02;90.27
47524;BME280;33253;42.144;25.884;2024-03-23T07:47:18;100702.75;;;8.14;88.24
47524;BME280;33253;42.144;25.884;2024-03-23T07:49:43;100702.03;;;8.35;86.45
47524;BME280;33253;42.144;25.884;2024-03-23T07:52:10;100703.38;;;8.45;85.93
47524;BME280;33253;42.144;25.884;2024-03-23T07:54:35;100703.31;;;8.43;86.75
47524;BME280;33253;42.144;25.884;2024-03-23T07:57:01;100700.81;;;8.61;86.57
47524;BME280;33253;42.144;25.884;2024-03-23T07:59:27;100700.94;;;8.82;84.80
47524;BME280;33253;42.144;25.884;2024-03-23T08:02:14;100702.03;;;8.69;85.88
47524;BME280;33253;42.144;25.884;2024-03-23T08:04:39;100705.16;;;8.46;86.09
47524;BME280;33253;42.144;25.884;2024-03-23T08:07:04;100696.91;;;8.51;87.27
47524;BME280;33253;42.144;25.884;2024-03-23T08:09:49;100693.69;;;8.39;86.71
47524;BME280;33253;42.144;25.884;2024-03-23T08:12:16;100701.00;;;8.66;85.07
47524;BME280;33253;42.144;25.884;2024-03-23T08:15:01;100698.88;;;8.75;84.35
47524;BME280;33253;42.144;25.884;2024-03-23T08:17:27;100692.63;;;8.88;83.42
47524;BME280;33253;42.144;25.884;2024-03-23T08:19:52;100697.84;;;9.07;81.99
47524;BME280;33253;42.144;25.884;2024-03-23T08:22:19;100690.28;;;9.30;81.33
47524;BME280;33253;42.144;25.884;2024-03-23T08:24:44;100685.91;;;9.47;80.97
47524;BME280;33253;42.144;25.884;2024-03-23T08:27:29;100679.78;;;9.65;80.34
47524;BME280;33253;42.144;25.884;2024-03-23T08:29:56;100676.72;;;9.74;81.78
47524;BME280;33253;42.144;25.884;2024-03-23T08:32:21;100681.47;;;9.64;82.84
47524;BME280;33253;42.144;25.884;2024-03-23T08:34:48;100672.78;;;9.82;84.23
47524;BME280;33253;42.144;25.884;2024-03-23T08:37:13;100677.97;;;10.03;77.92
47524;BME280;33253;42.144;25.884;2024-03-23T08:39:39;100673.31;;;10.15;76.64
47524;BME280;33253;42.144;25.884;2024-03-23T08:42:04;100672.59;;;10.39;76.26
47524;BME280;33253;42.144;25.884;2024-03-23T08:44:29;100673.47;;;10.38;72.48
47524;BME280;33253;42.144;25.884;2024-03-23T08:46:57;100672.25;;;10.51;75.11
47524;BME280;33253;42.144;25.884;2024-03-23T08:49:24;100666.56;;;10.60;73.28
47524;BME280;33253;42.144;25.884;2024-03-23T08:51:49;100660.78;;;10.65;72.82
47524;BME280;33253;42.144;25.884;2024-03-23T08:54:15;100657.09;;;10.60;75.28
47524;BME280;33253;42.144;25.884;2024-03-23T08:56:41;100650.91;;;10.78;74.23
47524;BME280;33253;42.144;25.884;2024-03-23T08:59:08;100637.06;;;10.98;74.45
47524;BME280;33253;42.144;25.884;2024-03-23T09:01:34;100634.91;;;11.09;74.71
47524;BME280;33253;42.144;25.884;2024-03-23T09:04:00;100635.91;;;11.13;74.52
47524;BME280;33253;42.144;25.884;2024-03-23T09:06:25;100627.59;;;11.22;71.02
47524;BME280;33253;42.144;25.884;2024-03-23T09:08:50;100628.38;;;11.43;69.36
47524;BME280;33253;42.144;25.884;2024-03-23T09:11:16;100615.63;;;11.48;73.04
47524;BME280;33253;42.144;25.884;2024-03-23T09:13:42;100605.63;;;11.59;74.73
47524;BME280;33253;42.144;25.884;2024-03-23T09:16:07;100613.28;;;11.56;69.53
47524;BME280;33253;42.144;25.884;2024-03-23T09:18:34;100617.44;;;11.51;71.43
47524;BME280;33253;42.144;25.884;2024-03-23T09:21:00;100607.97;;;11.51;68.20
47524;BME280;33253;42.144;25.884;2024-03-23T09:23:26;100608.56;;;11.68;69.56
47524;BME280;33253;42.144;25.884;2024-03-23T09:25:51;100603.31;;;11.92;68.33
47524;BME280;33253;42.144;25.884;2024-03-23T09:28:16;100603.06;;;12.09;67.52
47524;BME280;33253;42.144;25.884;2024-03-23T09:30:42;100593.44;;;12.32;66.14
47524;BME280;33253;42.144;25.884;2024-03-23T09:33:11;100589.19;;;12.34;66.31
47524;BME280;33253;42.144;25.884;2024-03-23T09:35:40;100588.69;;;12.46;66.42
47524;BME280;33253;42.144;25.884;2024-03-23T09:38:25;100575.28;;;12.59;66.32
47524;BME280;33253;42.144;25.884;2024-03-23T09:40:52;100570.16;;;12.61;66.02
47524;BME280;33253;42.144;25.884;2024-03-23T09:43:19;100577.22;;;12.67;64.63
47524;BME280;33253;42.144;25.884;2024-03-23T09:45:45;100568.22;;;12.54;63.67
47524;BME280;33253;42.144;25.884;2024-03-23T09:48:11;100557.16;;;12.59;63.31
47524;BME280;33253;42.144;25.884;2024-03-23T09:50:37;100561.06;;;12.74;61.83
47524;BME280;33253;42.144;25.884;2024-03-23T09:53:03;100557.28;;;12.93;60.82
47524;BME280;33253;42.144;25.884;2024-03-23T09:55:28;100553.47;;;13.12;59.25
47524;BME280;33253;42.144;25.884;2024-03-23T09:57:54;100550.38;;;13.24;57.12
47524;BME280;33253;42.144;25.884;2024-03-23T10:00:20;100546.66;;;13.46;57.02
47524;BME280;33253;42.144;25.884;2024-03-23T10:02:46;100537.72;;;13.68;56.61
47524;BME280;33253;42.144;25.884;2024-03-23T10:05:22;100529.88;;;13.67;56.14
47524;BME280;33253;42.144;25.884;2024-03-23T10:07:50;100532.09;;;13.86;56.68
47524;BME280;33253;42.144;25.884;2024-03-23T10:10:16;100529.00;;;13.65;55.74
47524;BME280;33253;42.144;25.884;2024-03-23T10:12:45;100491.88;;;13.67;56.22
47524;BME280;33253;42.144;25.884;2024-03-23T10:15:19;100523.25;;;14.13;55.63
47524;BME280;33253;42.144;25.884;2024-03-23T10:17:46;100511.28;;;14.21;55.19
47524;BME280;33253;42.144;25.884;2024-03-23T10:20:12;100511.84;;;14.46;54.24
47524;BME280;33253;42.144;25.884;2024-03-23T10:22:37;100512.25;;;14.65;52.44
47524;BME280;33253;42.144;25.884;2024-03-23T10:25:09;100499.69;;;14.86;56.05
47524;BME280;33253;42.144;25.884;2024-03-23T10:27:35;100494.00;;;15.06;53.50
47524;BME280;33253;42.144;25.884;2024-03-23T10:30:07;100493.91;;;15.01;53.27
47524;BME280;33253;42.144;25.884;2024-03-23T10:32:33;100487.75;;;14.96;53.84
47524;BME280;33253;42.144;25.884;2024-03-23T10:35:17;100476.41;;;14.93;52.87
47524;BME280;33253;42.144;25.884;2024-03-23T10:37:49;100471.19;;;14.91;56.64
47524;BME280;33253;42.144;25.884;2024-03-23T10:40:15;100472.53;;;15.16;50.24
47524;BME280;33253;42.144;25.884;2024-03-23T10:42:40;100465.00;;;15.30;48.33
47524;BME280;33253;42.144;25.884;2024-03-23T10:45:06;100456.41;;;15.36;51.43
47524;BME280;33253;42.144;25.884;2024-03-23T10:47:34;100452.97;;;15.39;52.13
47524;BME280;33253;42.144;25.884;2024-03-23T10:49:59;100446.19;;;15.47;50.43
47524;BME280;33253;42.144;25.884;2024-03-23T10:52:24;100442.84;;;15.56;50.63
47524;BME280;33253;42.144;25.884;2024-03-23T10:54:54;100432.78;;;15.77;50.02
47524;BME280;33253;42.144;25.884;2024-03-23T10:57:41;100427.34;;;15.62;50.77
47524;BME280;33253;42.144;25.884;2024-03-23T11:00:07;100425.59;;;15.62;46.57
47524;BME280;33253;42.144;25.884;2024-03-23T11:02:33;100427.78;;;15.91;45.90
47524;BME280;33253;42.144;25.884;2024-03-23T11:04:59;100417.69;;;16.13;42.52
47524;BME280;33253;42.144;25.884;2024-03-23T11:09:52;100409.47;;;16.49;41.45
47524;BME280;33253;42.144;25.884;2024-03-23T11:17:21;100393.34;;;16.86;41.70
47524;BME280;33253;42.144;25.884;2024-03-23T11:20:07;100395.28;;;17.06;42.28
47524;BME280;33253;42.144;25.884;2024-03-23T11:25:12;100386.75;;;17.22;37.35
47524;BME280;33253;42.144;25.884;2024-03-23T11:27:37;100374.47;;;17.12;35.46
47524;BME280;33253;42.144;25.884;2024-03-23T11:32:37;100370.69;;;16.82;32.68
47524;BME280;33253;42.144;25.884;2024-03-23T11:35:29;100377.47;;;16.64;30.66
47524;BME280;33253;42.144;25.884;2024-03-23T11:38:11;100372.19;;;16.57;32.56
47524;BME280;33253;42.144;25.884;2024-03-23T11:40:37;100362.69;;;16.62;33.94
47524;BME280;33253;42.144;25.884;2024-03-23T11:43:10;100359.72;;;16.29;31.43
47524;BME280;33253;42.144;25.884;2024-03-23T11:48:06;100348.38;;;16.26;29.81
47524;BME280;33253;42.144;25.884;2024-03-23T11:50:31;100347.75;;;16.45;33.69
47524;BME280;33253;42.144;25.884;2024-03-23T11:53:07;100337.59;;;16.72;29.26
47524;BME280;33253;42.144;25.884;2024-03-23T11:55:41;100323.97;;;17.01;30.94
47524;BME280;33253;42.144;25.884;2024-03-23T11:58:06;100325.94;;;17.33;31.88
47524;BME280;33253;42.144;25.884;2024-03-23T12:00:33;100318.22;;;17.46;31.23
47524;BME280;33253;42.144;25.884;2024-03-23T12:03:00;100314.88;;;17.72;30.78
47524;BME280;33253;42.144;25.884;2024-03-23T12:05:26;100313.16;;;17.76;28.97
47524;BME280;33253;42.144;25.884;2024-03-23T12:07:51;100312.31;;;17.89;30.09
47524;BME280;33253;42.144;25.884;2024-03-23T12:10:18;100307.13;;;17.91;30.54
47524;BME280;33253;42.144;25.884;2024-03-23T12:12:44;100306.31;;;18.01;30.97
47524;BME280;33253;42.144;25.884;2024-03-23T12:15:10;100298.44;;;17.93;31.10
47524;BME280;33253;42.144;25.884;2024-03-23T12:17:36;100297.63;;;18.05;31.86
47524;BME280;33253;42.144;25.884;2024-03-23T12:20:01;100292.38;;;17.99;30.82
47524;BME280;33253;42.144;25.884;2024-03-23T12:22:27;100288.84;;;17.91;31.22
47524;BME280;33253;42.144;25.884;2024-03-23T12:24:54;100277.63;;;18.12;31.12
47524;BME280;33253;42.144;25.884;2024-03-23T12:27:20;100281.94;;;17.94;29.39
47524;BME280;33253;42.144;25.884;2024-03-23T12:29:45;100274.84;;;17.73;30.00
47524;BME280;33253;42.144;25.884;2024-03-23T12:32:12;100272.28;;;17.81;28.67
47524;BME280;33253;42.144;25.884;2024-03-23T12:34:37;100260.19;;;17.99;28.26
47524;BME280;33253;42.144;25.884;2024-03-23T12:37:03;100257.53;;;17.94;30.37
47524;BME280;33253;42.144;25.884;2024-03-23T12:39:28;100252.34;;;18.05;31.90
47524;BME280;33253;42.144;25.884;2024-03-23T12:41:54;100254.94;;;18.00;32.79
47524;BME280;33253;42.144;25.884;2024-03-23T12:44:20;100250.47;;;17.74;32.29
47524;BME280;33253;42.144;25.884;2024-03-23T12:46:47;100241.81;;;17.86;32.80
47524;BME280;33253;42.144;25.884;2024-03-23T12:49:13;100235.81;;;18.03;33.11
47524;BME280;33253;42.144;25.884;2024-03-23T12:51:38;100241.03;;;17.98;32.57
47524;BME280;33253;42.144;25.884;2024-03-23T12:54:04;100231.41;;;17.92;32.72
47524;BME280;33253;42.144;25.884;2024-03-23T12:56:31;100230.38;;;17.58;32.32
47524;BME280;33253;42.144;25.884;2024-03-23T12:58:56;100228.63;;;17.55;34.50
47524;BME280;33253;42.144;25.884;2024-03-23T13:01:23;100228.59;;;17.43;31.63
47524;BME280;33253;42.144;25.884;2024-03-23T13:03:52;100226.00;;;17.48;32.19
47524;BME280;33253;42.144;25.884;2024-03-23T13:06:18;100222.53;;;17.52;31.55
47524;BME280;33253;42.144;25.884;2024-03-23T13:08:44;100216.47;;;17.57;33.61
47524;BME280;33253;42.144;25.884;2024-03-23T13:11:11;100212.13;;;17.55;34.98
47524;BME280;33253;42.144;25.884;2024-03-23T13:13:36;100210.34;;;17.48;34.48
47524;BME280;33253;42.144;25.884;2024-03-23T13:16:02;100212.13;;;17.56;32.46
47524;BME280;33253;42.144;25.884;2024-03-23T13:18:29;100202.50;;;17.46;31.32
47524;BME280;33253;42.144;25.884;2024-03-23T13:20:54;100198.06;;;17.28;31.51
47524;BME280;33253;42.144;25.884;2024-03-23T13:23:20;100194.63;;;17.35;33.54
47524;BME280;33253;42.144;25.884;2024-03-23T13:28:18;100192.88;;;17.34;32.58
47524;BME280;33253;42.144;25.884;2024-03-23T13:30:52;100182.53;;;17.53;32.74
47524;BME280;33253;42.144;25.884;2024-03-23T13:33:18;100181.72;;;17.65;32.71
47524;BME280;33253;42.144;25.884;2024-03-23T13:35:52;100185.22;;;17.76;33.89
47524;BME280;33253;42.144;25.884;2024-03-23T13:38:19;100178.25;;;17.75;35.54
47524;BME280;33253;42.144;25.884;2024-03-23T13:40:57;100180.75;;;17.45;34.93
47524;BME280;33253;42.144;25.884;2024-03-23T13:43:23;100175.53;;;17.45;33.23
47524;BME280;33253;42.144;25.884;2024-03-23T13:45:58;100172.91;;;17.38;33.74
47524;BME280;33253;42.144;25.884;2024-03-23T13:48:24;100167.59;;;17.18;33.36
47524;BME280;33253;42.144;25.884;2024-03-23T13:50:57;100164.06;;;17.08;33.67
47524;BME280;33253;42.144;25.884;2024-03-23T13:53:22;100159.69;;;17.05;33.80